createdAt,value
2019-05-06T00:00:34.118Z,83.68
2019-05-06T00:03:01.249Z,83.49
2019-05-06T00:05:28.123Z,83.32
2019-05-06T00:07:55.043Z,84.66
2019-05-06T00:10:31.426Z,85.27
2019-05-06T00:12:58.527Z,84.47
2019-05-06T00:15:25.621Z,85.21
2019-05-06T00:17:53.882Z,86.08
2019-05-06T00:20:21.167Z,86.06
2019-05-06T00:22:48.360Z,85.15
2019-05-06T00:25:16.948Z,85.89
2019-05-06T00:27:45.412Z,85.27
2019-05-06T00:30:14.826Z,84.83
2019-05-06T00:32:41.188Z,84.36
2019-05-06T00:35:08.997Z,84.69
2019-05-06T00:37:35.853Z,85.23
2019-05-06T00:40:04.940Z,84.34
2019-05-06T00:42:34.726Z,83.89
2019-05-06T00:45:01.778Z,84.25
2019-05-06T00:47:28.903Z,83.84
2019-05-06T00:49:55.595Z,83.83
2019-05-06T00:52:23.958Z,83.19
2019-05-06T00:54:51.068Z,83.28
2019-05-06T00:57:17.746Z,83.87
2019-05-06T00:59:44.453Z,84.16
2019-05-06T01:02:11.187Z,84.10
2019-05-06T01:04:37.972Z,83.91
2019-05-06T01:07:04.975Z,83.91
2019-05-06T01:09:34.554Z,83.61
2019-05-06T01:12:03.625Z,83.65
2019-05-06T01:14:31.873Z,83.91
2019-05-06T01:16:58.641Z,84.04
2019-05-06T01:19:25.309Z,84.07
2019-05-06T01:21:53.870Z,84.15
2019-05-06T01:24:20.677Z,83.83
2019-05-06T01:26:47.362Z,84.42
2019-05-06T01:29:14.674Z,84.92
2019-05-06T01:31:43.797Z,84.42
2019-05-06T01:34:10.156Z,84.27
2019-05-06T01:36:36.915Z,83.76
2019-05-06T01:39:24.638Z,83.86
2019-05-06T01:42:04.419Z,83.53
2019-05-06T01:44:31.328Z,83.43
2019-05-06T01:46:58.000Z,82.93
2019-05-06T01:49:24.696Z,83.66
2019-05-06T01:51:51.773Z,84.41
2019-05-06T01:54:18.540Z,84.83
2019-05-06T01:56:45.250Z,84.59
2019-05-06T01:59:13.946Z,84.94
2019-05-06T02:01:54.768Z,84.64
2019-05-06T02:04:09.694Z,84.61
2019-05-06T02:06:36.417Z,84.47
2019-05-06T02:09:09.086Z,84.46
2019-05-06T02:11:36.147Z,84.64
2019-05-06T02:14:04.806Z,84.89
2019-05-06T02:16:34.092Z,84.32
2019-05-06T02:19:00.688Z,84.30
2019-05-06T02:21:29.208Z,84.29
2019-05-06T02:24:14.425Z,84.81
2019-05-06T02:26:41.131Z,84.58
2019-05-06T02:29:12.672Z,84.95
2019-05-06T02:32:16.126Z,85.14
2019-05-06T02:34:46.139Z,85.21
2019-05-06T02:37:17.605Z,84.64
2019-05-06T02:39:44.312Z,84.88
2019-05-06T02:42:13.063Z,84.53
2019-05-06T02:44:39.662Z,84.76
2019-05-06T02:47:14.192Z,84.77
2019-05-06T02:49:44.234Z,84.57
2019-05-06T02:52:14.078Z,84.69
2019-05-06T02:54:42.617Z,84.56
2019-05-06T02:57:08.621Z,84.30
2019-05-06T02:59:35.342Z,84.98
2019-05-06T03:02:03.455Z,84.91
2019-05-06T03:04:33.218Z,84.88
2019-05-06T03:06:59.196Z,84.69
2019-05-06T03:09:25.909Z,84.67
2019-05-06T03:11:54.097Z,84.93
2019-05-06T03:14:23.367Z,85.09
2019-05-06T03:16:53.387Z,84.89
2019-05-06T03:19:19.193Z,84.70
2019-05-06T03:21:56.830Z,84.62
2019-05-06T03:24:25.853Z,84.55
2019-05-06T03:26:56.923Z,84.39
2019-05-06T03:29:25.005Z,84.37
2019-05-06T03:31:56.521Z,84.56
2019-05-06T03:34:38.409Z,84.52
2019-05-06T03:36:49.225Z,84.49
2019-05-06T03:39:16.380Z,84.49
2019-05-06T03:41:43.909Z,84.44
2019-05-06T03:44:16.282Z,83.99
2019-05-06T03:46:58.245Z,84.47
2019-05-06T03:49:26.736Z,84.57
2019-05-06T03:51:56.282Z,84.08
2019-05-06T03:54:23.263Z,84.46
2019-05-06T03:56:53.763Z,84.00
2019-05-06T03:59:23.326Z,84.65
2019-05-06T04:01:53.308Z,84.10
2019-05-06T04:04:18.910Z,83.91
2019-05-06T04:06:45.688Z,83.89
2019-05-06T04:09:13.394Z,83.68
2019-05-06T04:11:43.260Z,84.10
2019-05-06T04:14:09.802Z,84.18
2019-05-06T04:16:38.489Z,83.88
2019-05-06T04:19:13.268Z,84.00
2019-05-06T04:21:57.547Z,84.32
2019-05-06T04:24:35.345Z,83.66
2019-05-06T04:27:35.150Z,82.80
2019-05-06T04:30:04.654Z,82.82
2019-05-06T04:32:33.857Z,82.77
2019-05-06T04:34:59.670Z,81.17
2019-05-06T04:37:26.475Z,82.59
2019-05-06T04:39:53.694Z,83.47
2019-05-06T04:42:23.296Z,83.19
2019-05-06T04:44:52.953Z,82.76
2019-05-06T04:47:18.831Z,82.21
2019-05-06T04:49:45.938Z,80.80
2019-05-06T04:52:13.819Z,79.74
2019-05-06T04:54:43.939Z,78.85
2019-05-06T04:57:12.711Z,78.80
2019-05-06T04:59:39.441Z,78.94
2019-05-06T05:02:06.675Z,80.35
2019-05-06T05:04:36.585Z,81.86
2019-05-06T05:07:03.338Z,80.70
2019-05-06T05:09:32.530Z,78.46
2019-05-06T05:12:04.535Z,79.69
2019-05-06T05:14:33.017Z,82.19
2019-05-06T05:17:02.217Z,80.39
2019-05-06T05:19:32.723Z,78.66
2019-05-06T05:22:05.746Z,77.38
2019-05-06T05:24:33.333Z,76.48
2019-05-06T05:27:00.438Z,75.76
2019-05-06T05:29:27.116Z,75.00
2019-05-06T05:31:53.882Z,74.15
2019-05-06T05:34:22.443Z,75.28
2019-05-06T05:36:51.916Z,77.35
2019-05-06T05:39:18.472Z,77.96
2019-05-06T05:41:45.295Z,74.84
2019-05-06T05:44:17.007Z,75.45
2019-05-06T05:46:43.994Z,71.09
2019-05-06T05:49:18.419Z,69.36
2019-05-06T05:51:43.892Z,70.70
2019-05-06T05:54:12.430Z,71.52
2019-05-06T05:56:39.583Z,74.96
2019-05-06T05:59:06.371Z,74.93
2019-05-06T06:01:33.255Z,74.52
2019-05-06T06:04:02.833Z,74.31
2019-05-06T06:06:29.152Z,73.88
2019-05-06T06:08:55.878Z,72.68
2019-05-06T06:11:32.708Z,69.58
2019-05-06T06:14:03.007Z,65.08
2019-05-06T06:16:48.212Z,61.91
2019-05-06T06:19:19.564Z,61.75
2019-05-06T06:21:52.373Z,57.94
2019-05-06T06:24:27.105Z,55.52
2019-05-06T06:26:53.926Z,57.93
2019-05-06T06:29:22.735Z,59.04
2019-05-06T06:32:09.904Z,59.88
2019-05-06T06:34:39.509Z,61.25
2019-05-06T06:37:24.607Z,59.47
2019-05-06T06:39:52.699Z,65.59
2019-05-06T06:42:22.073Z,66.52
2019-05-06T06:44:48.392Z,67.19
2019-05-06T06:47:15.164Z,66.93
2019-05-06T06:49:42.535Z,68.45
2019-05-06T06:52:12.340Z,67.06
2019-05-06T06:54:39.113Z,64.66
2019-05-06T06:57:13.786Z,64.27
2019-05-06T06:59:55.538Z,61.34
2019-05-06T07:02:28.398Z,62.53
2019-05-06T07:04:56.867Z,61.40
2019-05-06T07:07:39.509Z,62.22
2019-05-06T07:09:54.077Z,60.17
2019-05-06T07:12:23.297Z,59.29
2019-05-06T07:14:52.319Z,60.11
2019-05-06T07:17:19.311Z,60.89
2019-05-06T07:19:47.836Z,62.16
2019-05-06T07:22:14.505Z,60.02
2019-05-06T07:24:43.078Z,59.33
2019-05-06T07:27:17.614Z,59.79
2019-05-06T07:29:48.117Z,59.38
2019-05-06T07:32:13.092Z,60.66
2019-05-06T07:34:41.574Z,63.05
2019-05-06T07:37:08.439Z,62.25
2019-05-06T07:39:35.111Z,61.29
2019-05-06T07:42:03.597Z,61.83
2019-05-06T07:44:33.357Z,59.29
2019-05-06T07:47:05.187Z,61.60
2019-05-06T07:49:32.929Z,60.18
2019-05-06T07:52:02.725Z,58.66
2019-05-06T07:54:29.778Z,58.38
2019-05-06T07:56:56.838Z,60.03
2019-05-06T07:59:23.734Z,62.54
2019-05-06T08:01:50.429Z,60.75
2019-05-06T08:04:17.292Z,60.60
2019-05-06T08:06:44.041Z,60.96
2019-05-06T08:09:12.935Z,62.11
2019-05-06T08:11:39.462Z,63.39
2019-05-06T08:14:06.238Z,64.61
2019-05-06T08:16:34.768Z,62.74
2019-05-06T08:19:02.803Z,63.22
2019-05-06T08:21:34.248Z,64.29
2019-05-06T08:24:02.723Z,72.09
2019-05-06T08:26:32.196Z,78.02
2019-05-06T08:28:58.909Z,79.37
2019-05-06T08:31:25.585Z,79.40
2019-05-06T08:33:52.751Z,79.22
2019-05-06T08:36:22.573Z,82.97
2019-05-06T08:38:56.516Z,83.70
2019-05-06T08:41:23.812Z,83.40
2019-05-06T08:43:52.637Z,84.02
2019-05-06T08:46:19.234Z,83.31
2019-05-06T08:48:45.985Z,85.11
2019-05-06T08:51:14.450Z,87.41
2019-05-06T08:53:43.943Z,87.48
2019-05-06T08:56:12.726Z,84.03
2019-05-06T08:58:45.981Z,84.46
2019-05-06T09:01:35.734Z,82.49
2019-05-06T09:04:09.521Z,80.26
2019-05-06T09:06:34.281Z,78.56
2019-05-06T09:09:02.450Z,78.22
2019-05-06T09:11:32.175Z,77.87
2019-05-06T09:13:59.146Z,80.80
2019-05-06T09:16:25.991Z,81.32
2019-05-06T09:18:53.388Z,79.44
2019-05-06T09:21:22.413Z,79.79
2019-05-06T09:23:48.816Z,80.71
2019-05-06T09:26:17.332Z,78.25
2019-05-06T09:28:48.896Z,82.37
2019-05-06T09:31:17.327Z,81.11
2019-05-06T09:33:45.891Z,82.70
2019-05-06T09:36:12.824Z,74.31
2019-05-06T09:38:39.548Z,77.25
2019-05-06T09:41:06.298Z,75.96
2019-05-06T09:43:32.990Z,78.09
2019-05-06T09:46:02.140Z,76.34
2019-05-06T09:48:42.534Z,76.34
2019-05-06T09:51:09.475Z,76.31
2019-05-06T09:53:37.990Z,79.59
2019-05-06T09:56:24.690Z,77.16
2019-05-06T09:58:52.905Z,80.65
2019-05-06T10:01:22.369Z,79.37
2019-05-06T10:03:48.373Z,71.53
2019-05-06T10:06:16.070Z,72.40
2019-05-06T10:08:42.857Z,75.65
2019-05-06T10:11:09.939Z,73.53
2019-05-06T10:13:36.735Z,74.97
2019-05-06T10:16:03.533Z,76.78
2019-05-06T10:18:30.321Z,70.88
2019-05-06T10:20:57.085Z,72.63
2019-05-06T10:23:23.814Z,72.63
2019-05-06T10:25:52.319Z,71.63
2019-05-06T10:28:26.712Z,73.62
2019-05-06T10:30:53.494Z,74.45
2019-05-06T10:33:24.690Z,76.39
2019-05-06T10:35:53.000Z,74.81
2019-05-06T10:38:28.813Z,76.94
2019-05-06T10:41:07.733Z,79.05
2019-05-06T10:43:57.146Z,74.86
2019-05-06T10:46:25.225Z,78.03
2019-05-06T10:48:53.013Z,75.68
2019-05-06T10:51:22.910Z,76.37
2019-05-06T10:53:49.681Z,76.35
2019-05-06T10:56:24.287Z,77.87
2019-05-06T10:58:52.761Z,75.32
2019-05-06T11:01:23.184Z,76.88
2019-05-06T11:03:52.387Z,75.16
2019-05-06T11:06:18.619Z,74.38
2019-05-06T11:08:45.321Z,73.53
2019-05-06T11:11:16.927Z,72.05
2019-05-06T11:13:40.761Z,73.77
2019-05-06T11:16:07.394Z,69.80
2019-05-06T11:18:34.078Z,72.81
2019-05-06T11:21:03.214Z,70.75
2019-05-06T11:23:29.469Z,75.39
2019-05-06T11:25:56.147Z,77.03
2019-05-06T11:28:28.783Z,78.98
2019-05-06T11:30:57.264Z,78.71
2019-05-06T11:33:32.950Z,79.66
2019-05-06T11:36:12.231Z,79.73
2019-05-06T11:38:39.228Z,79.48
2019-05-06T11:41:05.890Z,77.28
2019-05-06T11:43:32.620Z,77.42
2019-05-06T11:45:59.417Z,78.52
2019-05-06T11:48:26.357Z,82.35
2019-05-06T11:50:55.033Z,80.80
2019-05-06T11:53:23.163Z,82.54
2019-05-06T11:55:49.984Z,83.04
2019-05-06T11:58:34.626Z,82.24
2019-05-06T12:01:03.123Z,83.33
2019-05-06T12:03:29.816Z,84.96
2019-05-06T12:05:56.540Z,84.33
2019-05-06T12:08:23.221Z,83.96
2019-05-06T12:10:51.933Z,86.09
2019-05-06T12:13:18.551Z,84.61
2019-05-06T12:15:45.237Z,85.47
2019-05-06T12:18:12.524Z,85.33
2019-05-06T12:20:39.470Z,86.06
2019-05-06T12:23:06.185Z,85.98
2019-05-06T12:25:32.956Z,87.14
2019-05-06T12:27:59.632Z,87.02
2019-05-06T12:30:26.360Z,87.00
2019-05-06T12:32:54.996Z,87.59
2019-05-06T12:35:21.712Z,87.46
2019-05-06T12:37:50.294Z,86.83
2019-05-06T12:40:17.348Z,87.66
2019-05-06T12:42:45.916Z,87.92
2019-05-06T12:45:17.637Z,88.48
2019-05-06T12:47:46.138Z,88.12
2019-05-06T12:50:13.285Z,87.84
2019-05-06T12:52:43.815Z,88.10
2019-05-06T12:55:18.271Z,88.49
2019-05-06T12:57:38.254Z,88.05
2019-05-06T13:00:06.041Z,87.67
2019-05-06T13:02:33.024Z,87.90
2019-05-06T13:05:03.217Z,87.60
2019-05-06T13:07:32.320Z,87.79
2019-05-06T13:09:58.975Z,87.81
2019-05-06T13:12:27.528Z,88.37
2019-05-06T13:14:54.371Z,87.69
2019-05-06T13:17:22.949Z,87.35
2019-05-06T13:19:52.313Z,87.77
2019-05-06T13:22:24.564Z,87.83
2019-05-06T13:24:56.442Z,88.08
2019-05-06T13:27:27.283Z,87.53
2019-05-06T13:29:52.380Z,87.25
2019-05-06T13:32:20.959Z,87.30
2019-05-06T13:34:47.803Z,87.88
2019-05-06T13:37:14.599Z,87.11
2019-05-06T13:39:43.617Z,87.98
2019-05-06T13:42:13.273Z,87.59
2019-05-06T13:44:42.404Z,88.13
2019-05-06T13:47:12.129Z,87.59
2019-05-06T13:49:42.847Z,87.13
2019-05-06T13:52:12.430Z,87.97
2019-05-06T13:54:38.639Z,88.51
2019-05-06T13:57:05.603Z,86.67
2019-05-06T13:59:35.541Z,88.58
2019-05-06T14:02:22.179Z,88.79
2019-05-06T14:04:48.954Z,88.36
2019-05-06T14:07:15.804Z,89.10
2019-05-06T14:09:43.662Z,88.68
2019-05-06T14:12:10.770Z,88.81
2019-05-06T14:14:37.607Z,89.41
2019-05-06T14:17:04.378Z,89.25
2019-05-06T14:19:33.248Z,88.89
2019-05-06T14:21:59.737Z,88.58
2019-05-06T14:24:26.541Z,88.79
2019-05-06T14:26:58.651Z,88.24
2019-05-06T14:29:37.393Z,88.69
2019-05-06T14:32:04.116Z,88.98
2019-05-06T14:34:32.521Z,87.88
2019-05-06T14:37:07.381Z,88.00
2019-05-06T14:39:49.953Z,88.17
2019-05-06T14:42:07.637Z,87.10
2019-05-06T14:44:34.434Z,86.88
2019-05-06T14:47:03.081Z,87.19
2019-05-06T14:49:29.805Z,87.34
2019-05-06T14:51:56.524Z,88.38
2019-05-06T14:54:23.457Z,88.48
2019-05-06T14:57:02.618Z,88.25
2019-05-06T14:59:29.620Z,87.47
2019-05-06T15:01:56.399Z,88.01
2019-05-06T15:04:23.206Z,87.92
2019-05-06T15:06:49.981Z,86.93
2019-05-06T15:09:16.734Z,87.79
2019-05-06T15:11:43.671Z,87.55
2019-05-06T15:14:12.890Z,86.96
2019-05-06T15:16:39.174Z,88.62
2019-05-06T15:19:05.875Z,87.79
2019-05-06T15:21:38.457Z,86.38
2019-05-06T15:24:02.785Z,86.37
2019-05-06T15:26:29.617Z,86.50
2019-05-06T15:28:56.392Z,87.16
2019-05-06T15:31:28.958Z,88.23
2019-05-06T15:34:02.553Z,86.38
2019-05-06T15:36:32.721Z,86.40
2019-05-06T15:38:59.497Z,87.16
2019-05-06T15:41:26.281Z,85.60
2019-05-06T15:43:53.125Z,85.02
2019-05-06T15:46:19.879Z,84.81
2019-05-06T15:48:48.042Z,85.80
2019-05-06T15:51:14.930Z,86.33
2019-05-06T15:53:42.231Z,87.10
2019-05-06T15:56:09.074Z,87.49
2019-05-06T15:58:35.930Z,86.38
2019-05-06T16:01:03.337Z,87.23
2019-05-06T16:03:30.150Z,86.99
2019-05-06T16:05:57.018Z,87.27
2019-05-06T16:08:24.587Z,87.75
2019-05-06T16:10:55.765Z,88.93
2019-05-06T16:13:22.155Z,89.40
2019-05-06T16:15:48.737Z,88.81
2019-05-06T16:18:15.417Z,88.38
2019-05-06T16:20:42.238Z,88.30
2019-05-06T16:23:23.210Z,87.79
2019-05-06T16:25:52.269Z,88.18
2019-05-06T16:28:18.889Z,87.08
2019-05-06T16:30:53.419Z,86.31
2019-05-06T16:33:22.063Z,87.05
2019-05-06T16:35:49.091Z,88.29
2019-05-06T16:38:16.001Z,87.60
2019-05-06T16:40:45.476Z,88.17
2019-05-06T16:43:12.562Z,86.88
2019-05-06T16:45:39.450Z,87.53
2019-05-06T16:48:07.335Z,87.27
2019-05-06T16:50:34.074Z,87.00
2019-05-06T16:53:02.631Z,86.88
2019-05-06T16:55:47.805Z,87.42
2019-05-06T16:58:24.615Z,88.04
2019-05-06T17:00:52.427Z,87.69
2019-05-06T17:03:23.091Z,86.28
2019-05-06T17:06:06.763Z,87.95
2019-05-06T17:08:36.461Z,88.06
2019-05-06T17:11:04.659Z,88.17
2019-05-06T17:13:33.494Z,88.18
2019-05-06T17:15:59.822Z,88.34
2019-05-06T17:18:26.541Z,88.31
2019-05-06T17:20:53.245Z,87.51
2019-05-06T17:23:22.338Z,87.62
2019-05-06T17:25:48.729Z,87.97
2019-05-06T17:28:17.316Z,86.23
2019-05-06T17:30:57.963Z,87.33
2019-05-06T17:33:39.513Z,88.18
2019-05-06T17:36:08.346Z,89.01
2019-05-06T17:38:36.979Z,88.85
2019-05-06T17:41:03.804Z,88.79
2019-05-06T17:43:32.295Z,88.93
2019-05-06T17:46:03.181Z,88.45
2019-05-06T17:48:33.988Z,88.66
2019-05-06T17:51:13.488Z,87.16
2019-05-06T17:53:52.241Z,86.38
2019-05-06T17:56:19.364Z,86.93
2019-05-06T17:58:47.159Z,86.76
2019-05-06T18:01:15.789Z,88.01
2019-05-06T18:03:42.720Z,87.88
2019-05-06T18:06:13.957Z,87.11
2019-05-06T18:08:39.412Z,88.56
2019-05-06T18:11:06.221Z,88.25
2019-05-06T18:13:32.962Z,88.94
2019-05-06T18:15:59.813Z,88.64
2019-05-06T18:18:28.847Z,88.70
2019-05-06T18:20:55.503Z,88.34
2019-05-06T18:23:22.351Z,88.29
2019-05-06T18:25:49.124Z,86.92
2019-05-06T18:28:15.898Z,85.77
2019-05-06T18:30:42.906Z,86.16
2019-05-06T18:33:09.673Z,86.94
2019-05-06T18:35:36.531Z,86.97
2019-05-06T18:38:03.462Z,86.65
2019-05-06T18:40:33.036Z,87.71
2019-05-06T18:42:58.887Z,87.98
2019-05-06T18:45:25.680Z,88.86
2019-05-06T18:47:53.177Z,88.24
2019-05-06T18:50:22.030Z,88.84
2019-05-06T18:52:49.023Z,88.94
2019-05-06T18:55:18.867Z,88.62
2019-05-06T18:57:45.674Z,87.00
2019-05-06T19:00:13.520Z,86.82
2019-05-06T19:02:42.318Z,87.18
2019-05-06T19:05:26.768Z,88.32
2019-05-06T19:07:52.943Z,88.35
2019-05-06T19:10:22.389Z,87.56
2019-05-06T19:12:49.401Z,87.88
2019-05-06T19:15:16.203Z,87.81
2019-05-06T19:17:44.365Z,87.28
2019-05-06T19:20:11.693Z,87.95
2019-05-06T19:22:38.387Z,86.70
2019-05-06T19:25:05.304Z,86.75
2019-05-06T19:27:34.482Z,86.93
2019-05-06T19:30:10.217Z,87.23
2019-05-06T19:32:37.067Z,86.80
2019-05-06T19:35:04.139Z,87.33
2019-05-06T19:37:32.858Z,86.92
2019-05-06T19:39:59.857Z,87.81
2019-05-06T19:42:26.633Z,87.37
2019-05-06T19:44:53.518Z,87.69
2019-05-06T19:47:20.338Z,87.57
2019-05-06T19:49:47.142Z,88.68
2019-05-06T19:52:15.024Z,88.50
2019-05-06T19:54:42.475Z,88.88
2019-05-06T19:57:09.405Z,88.75
2019-05-06T19:59:36.105Z,87.82
2019-05-06T20:02:05.043Z,88.09
2019-05-06T20:04:33.275Z,87.64
2019-05-06T20:07:02.494Z,87.08
2019-05-06T20:09:47.910Z,87.47
2019-05-06T20:12:16.463Z,88.70
2019-05-06T20:14:43.252Z,88.55
2019-05-06T20:17:12.923Z,88.81
2019-05-06T20:19:39.738Z,88.49
2019-05-06T20:22:06.568Z,88.65
2019-05-06T20:24:33.454Z,89.16
2019-05-06T20:27:02.223Z,89.24
2019-05-06T20:29:32.410Z,89.22
2019-05-06T20:32:03.031Z,88.86
2019-05-06T20:34:32.020Z,88.48
2019-05-06T20:36:58.617Z,88.38
2019-05-06T20:39:25.455Z,88.37
2019-05-06T20:41:52.235Z,88.93
2019-05-06T20:44:19.017Z,89.08
2019-05-06T20:46:45.857Z,88.40
2019-05-06T20:49:13.229Z,88.07
2019-05-06T20:51:42.279Z,88.29
2019-05-06T20:54:08.723Z,87.65
2019-05-06T20:56:35.877Z,87.20
2019-05-06T20:59:02.688Z,87.82
2019-05-06T21:01:29.432Z,88.61
2019-05-06T21:03:56.135Z,89.12
2019-05-06T21:06:22.935Z,88.01
2019-05-06T21:08:49.797Z,87.38
2019-05-06T21:11:26.539Z,88.18
2019-05-06T21:13:45.369Z,88.57
2019-05-06T21:16:12.967Z,89.04
2019-05-06T21:18:41.837Z,88.96
2019-05-06T21:21:08.536Z,88.79
2019-05-06T21:23:35.340Z,88.13
2019-05-06T21:26:03.323Z,88.52
2019-05-06T21:28:30.197Z,89.13
2019-05-06T21:30:56.998Z,89.49
2019-05-06T21:33:23.717Z,89.91
2019-05-06T21:35:52.288Z,90.09
2019-05-06T21:38:19.097Z,89.36
2019-05-06T21:40:45.797Z,88.72
2019-05-06T21:43:15.614Z,88.72
2019-05-06T21:45:42.615Z,89.30
2019-05-06T21:48:09.526Z,89.81
2019-05-06T21:50:37.332Z,89.69
2019-05-06T21:53:04.121Z,88.62
2019-05-06T21:55:32.378Z,89.15
2019-05-06T21:57:59.418Z,89.70
2019-05-06T22:00:29.134Z,89.57
2019-05-06T22:02:57.644Z,89.62
2019-05-06T22:05:24.417Z,90.11
2019-05-06T22:07:52.583Z,89.53
2019-05-06T22:10:19.750Z,89.66
2019-05-06T22:12:46.601Z,89.42
2019-05-06T22:15:13.600Z,89.81
2019-05-06T22:17:40.361Z,89.79
2019-05-06T22:20:08.025Z,89.54
2019-05-06T22:22:37.323Z,89.65
2019-05-06T22:25:05.386Z,89.77
2019-05-06T22:27:32.343Z,89.63
2019-05-06T22:29:59.052Z,89.54
2019-05-06T22:32:25.759Z,89.83
2019-05-06T22:34:52.499Z,89.21
2019-05-06T22:37:19.195Z,89.29
2019-05-06T22:39:45.909Z,88.20
2019-05-06T22:42:12.841Z,88.92
2019-05-06T22:44:39.516Z,89.09
2019-05-06T22:47:06.237Z,87.78
2019-05-06T22:49:33.144Z,88.03
2019-05-06T22:51:59.996Z,87.66
2019-05-06T22:54:27.917Z,87.74
2019-05-06T22:56:54.705Z,87.28
2019-05-06T22:59:24.386Z,87.58
2019-05-06T23:01:55.330Z,88.12
2019-05-06T23:04:24.249Z,88.61
2019-05-06T23:06:51.121Z,88.35
2019-05-06T23:09:17.882Z,88.11
2019-05-06T23:11:44.698Z,87.92
2019-05-06T23:14:26.932Z,88.33
2019-05-06T23:16:42.468Z,87.67
2019-05-06T23:19:09.376Z,88.32
2019-05-06T23:21:36.177Z,88.03
2019-05-06T23:24:03.073Z,88.26
2019-05-06T23:26:29.878Z,87.66
2019-05-06T23:28:56.640Z,88.01
2019-05-06T23:31:24.531Z,87.60
2019-05-06T23:33:53.359Z,87.54
2019-05-06T23:36:20.352Z,86.36
2019-05-06T23:39:24.037Z,86.83
2019-05-06T23:42:27.530Z,86.92
2019-05-06T23:45:32.423Z,86.50
2019-05-06T23:48:35.776Z,87.20
2019-05-06T23:51:39.319Z,85.36
2019-05-06T23:54:42.959Z,85.99
2019-05-06T23:57:09.317Z,86.15
2019-05-06T23:59:36.036Z,84.73
